N98189 KSFO-KSAC
Flight info
| Callsign | N98189 |
|---|---|
| Flight time | 0h 35m |
| Altitude | 5000 |
| Route | GAPP7 OAK V6 SAC |
| Aircraft | DA62/L-SDFGRY/C |
Departure
| Time | 2026-04-16 02:56 |
|---|---|
| Airport | San Francisco International Airport (KSFO) |
Arrival
| Time | 2026-04-16 03:31 |
|---|---|
| Airport | Sacramento Executive Airport (KSAC) |
| Time | Latitude | Longitude | Altitude | Speed | Heading |
|---|---|---|---|---|---|
| 2026-04-16 02:47 | 37.62839 | -122.38247 | 10 ft | 0 kts | 298° |
| 2026-04-16 02:49 | 37.62838 | -122.38254 | 10 ft | 5 kts | 222° |
| 2026-04-16 02:49 | 37.62778 | -122.38260 | 10 ft | 8 kts | 183° |
| 2026-04-16 02:49 | 37.62722 | -122.38267 | 10 ft | 8 kts | 188° |
| 2026-04-16 02:50 | 37.62667 | -122.38290 | 10 ft | 8 kts | 210° |
| 2026-04-16 02:50 | 37.62623 | -122.38322 | 10 ft | 6 kts | 194° |
| 2026-04-16 02:50 | 37.62590 | -122.38290 | 10 ft | 9 kts | 117° |
| 2026-04-16 02:50 | 37.62554 | -122.38211 | 12 ft | 15 kts | 116° |
| 2026-04-16 02:51 | 37.62503 | -122.38087 | 13 ft | 16 kts | 116° |
| 2026-04-16 02:51 | 37.62450 | -122.37963 | 14 ft | 16 kts | 118° |
| 2026-04-16 02:51 | 37.62398 | -122.37843 | 16 ft | 15 kts | 117° |
| 2026-04-16 02:51 | 37.62350 | -122.37720 | 15 ft | 17 kts | 117° |
| 2026-04-16 02:52 | 37.62306 | -122.37616 | 13 ft | 2 kts | 118° |
| 2026-04-16 02:52 | 37.62291 | -122.37581 | 13 ft | 7 kts | 117° |
| 2026-04-16 02:52 | 37.62253 | -122.37547 | 13 ft | 5 kts | 189° |
| 2026-04-16 02:52 | 37.62243 | -122.37551 | 13 ft | 0 kts | 202° |
| 2026-04-16 02:55 | 37.62220 | -122.37572 | 14 ft | 10 kts | 226° |
| 2026-04-16 02:55 | 37.62187 | -122.37670 | 14 ft | 19 kts | 277° |
| 2026-04-16 02:55 | 37.62346 | -122.38065 | 25 ft | 75 kts | 296° |
| 2026-04-16 02:55 | 37.62634 | -122.38674 | 281 ft | 87 kts | 296° |
| 2026-04-16 02:56 | 37.62921 | -122.39308 | 689 ft | 83 kts | 296° |
| 2026-04-16 02:56 | 37.63210 | -122.39951 | 1058 ft | 84 kts | 300° |
| 2026-04-16 02:56 | 37.63500 | -122.40587 | 1457 ft | 84 kts | 303° |
| 2026-04-16 02:56 | 37.63795 | -122.41230 | 1856 ft | 82 kts | 303° |
| 2026-04-16 02:57 | 37.64104 | -122.41771 | 2279 ft | 79 kts | 341° |
| 2026-04-16 02:57 | 37.64681 | -122.41762 | 2648 ft | 84 kts | 351° |
| 2026-04-16 02:57 | 37.65279 | -122.41764 | 2978 ft | 87 kts | 352° |
| 2026-04-16 02:57 | 37.65876 | -122.41762 | 3377 ft | 85 kts | 353° |
| 2026-04-16 02:58 | 37.66475 | -122.41767 | 3729 ft | 87 kts | 353° |
| 2026-04-16 02:58 | 37.67081 | -122.41787 | 4069 ft | 89 kts | 353° |
| 2026-04-16 02:58 | 37.67720 | -122.41809 | 4383 ft | 90 kts | 352° |
| 2026-04-16 02:58 | 37.68342 | -122.41822 | 4767 ft | 91 kts | 352° |
| 2026-04-16 02:59 | 37.69008 | -122.41854 | 4997 ft | 106 kts | 352° |
| 2026-04-16 02:59 | 37.69830 | -122.41904 | 5006 ft | 129 kts | 353° |
| 2026-04-16 02:59 | 37.70776 | -122.41978 | 5008 ft | 141 kts | 353° |
| 2026-04-16 02:59 | 37.71780 | -122.42028 | 5008 ft | 148 kts | 1° |
| 2026-04-16 03:00 | 37.72701 | -122.41386 | 5011 ft | 161 kts | 41° |
| 2026-04-16 03:00 | 37.73458 | -122.40328 | 5012 ft | 163 kts | 42° |
| 2026-04-16 03:00 | 37.74222 | -122.39251 | 5010 ft | 165 kts | 43° |
| 2026-04-16 03:00 | 37.74989 | -122.38170 | 5004 ft | 166 kts | 43° |
| 2026-04-16 03:01 | 37.75746 | -122.37100 | 5003 ft | 165 kts | 42° |
| 2026-04-16 03:01 | 37.76523 | -122.35998 | 5003 ft | 166 kts | 43° |
| 2026-04-16 03:01 | 37.77291 | -122.34909 | 5002 ft | 166 kts | 42° |
| 2026-04-16 03:01 | 37.78055 | -122.33824 | 5007 ft | 165 kts | 43° |
| 2026-04-16 03:02 | 37.78822 | -122.32733 | 5004 ft | 166 kts | 43° |
| 2026-04-16 03:02 | 37.79577 | -122.31666 | 5000 ft | 165 kts | 44° |
| 2026-04-16 03:02 | 37.80047 | -122.30307 | 5004 ft | 173 kts | 79° |
| 2026-04-16 03:02 | 37.80131 | -122.28785 | 5008 ft | 174 kts | 82° |
| 2026-04-16 03:03 | 37.80204 | -122.27259 | 5009 ft | 174 kts | 83° |
| 2026-04-16 03:03 | 37.80273 | -122.25726 | 5010 ft | 175 kts | 83° |
| 2026-04-16 03:03 | 37.80343 | -122.24208 | 5005 ft | 175 kts | 83° |
| 2026-04-16 03:03 | 37.80413 | -122.22675 | 5008 ft | 174 kts | 83° |
| 2026-04-16 03:04 | 37.80482 | -122.21126 | 5006 ft | 174 kts | 83° |
| 2026-04-16 03:04 | 37.80556 | -122.19604 | 4996 ft | 173 kts | 82° |
| 2026-04-16 03:04 | 37.80625 | -122.18080 | 5007 ft | 173 kts | 83° |
| 2026-04-16 03:04 | 37.80695 | -122.16596 | 5003 ft | 170 kts | 83° |
| 2026-04-16 03:05 | 37.80763 | -122.15101 | 5001 ft | 171 kts | 83° |
| 2026-04-16 03:05 | 37.80841 | -122.13592 | 5003 ft | 171 kts | 78° |
| 2026-04-16 03:05 | 37.81395 | -122.12350 | 4995 ft | 161 kts | 31° |
| 2026-04-16 03:05 | 37.82415 | -122.11859 | 4999 ft | 157 kts | 12° |
| 2026-04-16 03:06 | 37.83411 | -122.11260 | 4994 ft | 162 kts | 30° |
| 2026-04-16 03:06 | 37.84314 | -122.10394 | 4975 ft | 164 kts | 33° |
| 2026-04-16 03:06 | 37.86084 | -122.08574 | 4981 ft | 164 kts | 34° |
| 2026-04-16 03:07 | 37.86969 | -122.07664 | 4978 ft | 164 kts | 34° |
| 2026-04-16 03:07 | 37.87854 | -122.06757 | 4982 ft | 164 kts | 34° |
| 2026-04-16 03:07 | 37.88738 | -122.05851 | 4976 ft | 163 kts | 33° |
| 2026-04-16 03:07 | 37.89622 | -122.04945 | 4981 ft | 166 kts | 34° |
| 2026-04-16 03:08 | 37.90554 | -122.03994 | 4976 ft | 176 kts | 33° |
| 2026-04-16 03:08 | 37.91520 | -122.03002 | 4976 ft | 181 kts | 34° |
| 2026-04-16 03:08 | 37.92489 | -122.02005 | 4978 ft | 184 kts | 34° |
| 2026-04-16 03:08 | 37.93493 | -122.00971 | 4978 ft | 185 kts | 34° |
| 2026-04-16 03:09 | 37.94500 | -121.99937 | 4978 ft | 187 kts | 34° |
| 2026-04-16 03:09 | 37.95510 | -121.98897 | 4981 ft | 188 kts | 34° |
| 2026-04-16 03:09 | 37.96524 | -121.97856 | 4979 ft | 187 kts | 34° |
| 2026-04-16 03:09 | 37.97538 | -121.96813 | 4982 ft | 188 kts | 33° |
| 2026-04-16 03:10 | 37.98553 | -121.95767 | 4979 ft | 188 kts | 34° |
| 2026-04-16 03:10 | 37.99568 | -121.94724 | 4983 ft | 187 kts | 34° |
| 2026-04-16 03:10 | 38.00583 | -121.93677 | 4977 ft | 189 kts | 33° |
| 2026-04-16 03:10 | 38.01601 | -121.92632 | 4980 ft | 188 kts | 34° |
| 2026-04-16 03:11 | 38.02616 | -121.91584 | 4979 ft | 188 kts | 35° |
| 2026-04-16 03:11 | 38.03628 | -121.90539 | 4980 ft | 188 kts | 34° |
| 2026-04-16 03:11 | 38.04643 | -121.89495 | 4975 ft | 188 kts | 34° |
| 2026-04-16 03:11 | 38.05656 | -121.88449 | 4973 ft | 187 kts | 33° |
| 2026-04-16 03:12 | 38.06670 | -121.87402 | 4974 ft | 188 kts | 33° |
| 2026-04-16 03:12 | 38.07684 | -121.86353 | 4968 ft | 188 kts | 34° |
| 2026-04-16 03:12 | 38.08700 | -121.85306 | 4939 ft | 188 kts | 35° |
| 2026-04-16 03:12 | 38.09715 | -121.84255 | 4932 ft | 188 kts | 35° |
| 2026-04-16 03:13 | 38.10729 | -121.83209 | 4931 ft | 188 kts | 35° |
| 2026-04-16 03:13 | 38.11754 | -121.82147 | 4936 ft | 188 kts | 34° |
| 2026-04-16 03:13 | 38.12714 | -121.81152 | 4924 ft | 170 kts | 34° |
| 2026-04-16 03:13 | 38.13616 | -121.80218 | 4918 ft | 166 kts | 33° |
| 2026-04-16 03:14 | 38.14511 | -121.79296 | 4916 ft | 164 kts | 33° |
| 2026-04-16 03:14 | 38.15396 | -121.78383 | 4917 ft | 164 kts | 34° |
| 2026-04-16 03:14 | 38.16281 | -121.77464 | 4913 ft | 164 kts | 34° |
| 2026-04-16 03:14 | 38.17208 | -121.76631 | 4912 ft | 163 kts | 26° |
| 2026-04-16 03:15 | 38.18179 | -121.75878 | 4990 ft | 163 kts | 26° |
| 2026-04-16 03:15 | 38.19149 | -121.75116 | 5002 ft | 165 kts | 26° |
| 2026-04-16 03:15 | 38.20136 | -121.74341 | 5004 ft | 168 kts | 27° |
| 2026-04-16 03:15 | 38.21138 | -121.73548 | 5010 ft | 171 kts | 27° |
| 2026-04-16 03:16 | 38.22155 | -121.72749 | 5012 ft | 172 kts | 27° |
| 2026-04-16 03:16 | 38.23177 | -121.71940 | 5016 ft | 173 kts | 26° |
| 2026-04-16 03:16 | 38.24200 | -121.71130 | 5014 ft | 173 kts | 27° |
| 2026-04-16 03:16 | 38.25231 | -121.70319 | 5009 ft | 174 kts | 26° |
| 2026-04-16 03:17 | 38.26262 | -121.69505 | 5013 ft | 174 kts | 27° |
| 2026-04-16 03:17 | 38.27292 | -121.68691 | 5015 ft | 174 kts | 27° |
| 2026-04-16 03:17 | 38.28319 | -121.67881 | 5014 ft | 174 kts | 27° |
| 2026-04-16 03:17 | 38.29345 | -121.67070 | 5013 ft | 174 kts | 27° |
| 2026-04-16 03:18 | 38.30371 | -121.66257 | 5016 ft | 174 kts | 27° |
| 2026-04-16 03:18 | 38.31404 | -121.65440 | 5014 ft | 175 kts | 28° |
| 2026-04-16 03:18 | 38.32433 | -121.64626 | 5011 ft | 175 kts | 27° |
| 2026-04-16 03:18 | 38.33472 | -121.63806 | 5013 ft | 175 kts | 28° |
| 2026-04-16 03:19 | 38.34504 | -121.62988 | 5014 ft | 174 kts | 29° |
| 2026-04-16 03:19 | 38.35534 | -121.62174 | 5012 ft | 174 kts | 27° |
| 2026-04-16 03:19 | 38.36566 | -121.61358 | 5011 ft | 175 kts | 28° |
| 2026-04-16 03:19 | 38.37599 | -121.60539 | 5015 ft | 175 kts | 27° |
| 2026-04-16 03:20 | 38.38637 | -121.59716 | 5011 ft | 176 kts | 28° |
| 2026-04-16 03:20 | 38.39675 | -121.58894 | 5009 ft | 176 kts | 27° |
| 2026-04-16 03:20 | 38.40362 | -121.58349 | 5005 ft | 175 kts | 28° |
| 2026-04-16 03:20 | 38.41427 | -121.57504 | 5006 ft | 175 kts | 27° |
| 2026-04-16 03:21 | 38.42465 | -121.56681 | 5007 ft | 176 kts | 28° |
| 2026-04-16 03:21 | 38.43503 | -121.55858 | 5009 ft | 176 kts | 29° |
| 2026-04-16 03:21 | 38.44545 | -121.55019 | 5003 ft | 178 kts | 33° |
| 2026-04-16 03:21 | 38.45233 | -121.53732 | 4911 ft | 180 kts | 75° |
| 2026-04-16 03:22 | 38.45170 | -121.52127 | 4574 ft | 184 kts | 102° |
| 2026-04-16 03:22 | 38.44893 | -121.50521 | 4293 ft | 185 kts | 103° |
| 2026-04-16 03:22 | 38.44599 | -121.48892 | 4015 ft | 184 kts | 103° |
| 2026-04-16 03:22 | 38.44318 | -121.47301 | 3757 ft | 183 kts | 103° |
| 2026-04-16 03:23 | 38.44046 | -121.45762 | 3516 ft | 174 kts | 103° |
| 2026-04-16 03:23 | 38.43783 | -121.44248 | 3056 ft | 176 kts | 103° |
| 2026-04-16 03:23 | 38.43536 | -121.42814 | 2997 ft | 155 kts | 103° |
| 2026-04-16 03:23 | 38.43326 | -121.41535 | 2990 ft | 143 kts | 103° |
| 2026-04-16 03:24 | 38.43133 | -121.40317 | 2997 ft | 140 kts | 103° |
| 2026-04-16 03:24 | 38.42935 | -121.39065 | 2999 ft | 147 kts | 102° |
| 2026-04-16 03:24 | 38.42721 | -121.37774 | 3009 ft | 151 kts | 103° |
| 2026-04-16 03:24 | 38.42496 | -121.36449 | 3012 ft | 155 kts | 103° |
| 2026-04-16 03:25 | 38.42534 | -121.35046 | 3010 ft | 162 kts | 63° |
| 2026-04-16 03:25 | 38.43365 | -121.34109 | 3012 ft | 158 kts | 17° |
| 2026-04-16 03:25 | 38.44419 | -121.33681 | 3011 ft | 160 kts | 13° |
| 2026-04-16 03:25 | 38.45472 | -121.33272 | 3010 ft | 161 kts | 12° |
| 2026-04-16 03:26 | 38.46560 | -121.32995 | 3010 ft | 157 kts | 349° |
| 2026-04-16 03:26 | 38.47452 | -121.33666 | 3010 ft | 150 kts | 306° |
| 2026-04-16 03:26 | 38.48124 | -121.34680 | 3008 ft | 151 kts | 316° |
| 2026-04-16 03:26 | 38.48984 | -121.35454 | 3011 ft | 153 kts | 324° |
| 2026-04-16 03:27 | 38.49898 | -121.36196 | 3007 ft | 153 kts | 323° |
| 2026-04-16 03:27 | 38.50829 | -121.36935 | 2843 ft | 162 kts | 325° |
| 2026-04-16 03:27 | 38.51807 | -121.37709 | 2622 ft | 168 kts | 323° |
| 2026-04-16 03:27 | 38.52804 | -121.38498 | 2396 ft | 169 kts | 324° |
| 2026-04-16 03:28 | 38.53809 | -121.39293 | 2171 ft | 171 kts | 323° |
| 2026-04-16 03:28 | 38.54821 | -121.40096 | 1941 ft | 171 kts | 323° |
| 2026-04-16 03:28 | 38.55723 | -121.40910 | 1724 ft | 147 kts | 308° |
| 2026-04-16 03:28 | 38.56247 | -121.41919 | 1538 ft | 129 kts | 289° |
| 2026-04-16 03:29 | 38.56458 | -121.42961 | 1374 ft | 116 kts | 271° |
| 2026-04-16 03:29 | 38.56418 | -121.43946 | 1225 ft | 107 kts | 256° |
| 2026-04-16 03:29 | 38.56192 | -121.44794 | 1094 ft | 106 kts | 243° |
| 2026-04-16 03:29 | 38.55773 | -121.45572 | 956 ft | 106 kts | 227° |
| 2026-04-16 03:30 | 38.55206 | -121.46169 | 902 ft | 105 kts | 215° |
| 2026-04-16 03:30 | 38.54602 | -121.46656 | 698 ft | 93 kts | 214° |
| 2026-04-16 03:30 | 38.54071 | -121.47101 | 478 ft | 95 kts | 214° |
| 2026-04-16 03:30 | 38.53537 | -121.47584 | 381 ft | 88 kts | 211° |
| 2026-04-16 03:31 | 38.52977 | -121.48034 | 305 ft | 102 kts | 213° |
| 2026-04-16 03:31 | 38.52378 | -121.48536 | 148 ft | 94 kts | 211° |
| 2026-04-16 03:31 | 38.51865 | -121.48957 | 50 ft | 84 kts | 211° |
| 2026-04-16 03:31 | 38.51482 | -121.49271 | 25 ft | 49 kts | 213° |
| 2026-04-16 03:32 | 38.51358 | -121.49489 | 23 ft | 22 kts | 270° |